Time;durP1;ratioP1;P1;durP2;ratioP2;P2;SDS_P1;SDS_P2;PMS_P1;PMS_P2;Temp;Humidity;BMP_temperature;BMP_pressure;BME280_temperature;BME280_humidity;BME280_pressure;Samples;Min_cycle;Max_cycle;Signal;HPM_P1;HPM_P2
2021/12/27 00:00:18;;;;;;;246.55;91.95;;;;;;;-11.12;71.71;100901.08;1603669;88;25822;-78
2021/12/27 00:02:51;;;;;;;261.98;91.40;;;;;;;-11.09;71.96;100899.68;1598515;87;26039;-78
2021/12/27 00:05:18;;;;;;;244.72;96.47;;;;;;;-11.08;71.92;100900.95;1603285;87;25918;-78
2021/12/27 00:07:48;;;;;;;263.30;94.20;;;;;;;-11.09;71.68;100900.53;1639582;85;25955;-78
2021/12/27 00:10:13;;;;;;;253.90;95.95;;;;;;;-11.11;71.67;100895.00;1637776;86;27465;-78
2021/12/27 00:12:41;;;;;;;272.40;105.12;;;;;;;-11.13;71.70;100895.49;1635196;85;25860;-78
2021/12/27 00:15:09;;;;;;;271.50;99.07;;;;;;;-11.14;71.64;100899.81;1603690;87;25716;-78
2021/12/27 00:17:36;;;;;;;282.37;103.38;;;;;;;-11.12;71.76;100898.50;1636755;86;25904;-78
2021/12/27 00:20:08;;;;;;;264.27;98.62;;;;;;;-11.13;71.86;100900.66;1606971;87;25754;-78
2021/12/27 00:22:34;;;;;;;244.75;90.25;;;;;;;-11.10;71.94;100902.70;1579206;89;28290;-78
2021/12/27 00:25:01;;;;;;;249.40;93.10;;;;;;;-11.12;71.90;100898.50;1642398;85;25867;-78
2021/12/27 00:27:27;;;;;;;226.27;86.32;;;;;;;-11.11;72.15;100900.17;1637603;85;26683;-78
2021/12/27 00:29:53;;;;;;;237.85;92.40;;;;;;;-11.07;72.45;100901.34;1639439;86;25897;-78
2021/12/27 00:32:19;;;;;;;220.20;84.92;;;;;;;-11.05;72.51;100905.16;1603574;88;25759;-78
2021/12/27 00:34:45;;;;;;;220.48;83.03;;;;;;;-11.03;72.42;100909.84;1641288;86;28245;-78
2021/12/27 00:37:12;;;;;;;220.10;84.03;;;;;;;-11.02;72.32;100909.41;1639246;85;26551;-78
2021/12/27 00:39:38;;;;;;;227.05;83.75;;;;;;;-11.07;72.11;100907.80;1637423;85;25812;-78
2021/12/27 00:42:06;;;;;;;205.75;82.90;;;;;;;-11.09;71.60;100912.61;1604765;87;25877;-77
2021/12/27 00:44:33;;;;;;;221.95;82.47;;;;;;;-11.17;71.51;100916.72;1578377;89;25827;-78
2021/12/27 00:47:00;;;;;;;237.68;85.50;;;;;;;-11.20;71.62;100912.06;1638464;85;27524;-78
2021/12/27 00:49:27;;;;;;;220.67;84.85;;;;;;;-11.20;71.79;100914.65;1635954;86;26414;-78
2021/12/27 00:51:53;;;;;;;206.93;81.28;;;;;;;-11.19;72.00;100913.34;1640410;86;25782;-78
2021/12/27 00:54:19;;;;;;;228.25;86.92;;;;;;;-11.18;72.08;100913.72;1640559;85;26360;-78
2021/12/27 00:56:46;;;;;;;247.45;90.17;;;;;;;-11.23;71.78;100914.31;1603656;87;25969;-78
2021/12/27 00:59:12;;;;;;;236.05;90.80;;;;;;;-11.30;71.62;100911.48;1581009;89;27436;-78
2021/12/27 01:01:39;;;;;;;209.75;81.78;;;;;;;-11.33;71.45;100911.56;1580380;89;25859;-78
2021/12/27 01:04:06;;;;;;;207.80;79.32;;;;;;;-11.34;71.35;100916.34;1638125;86;25941;-77
2021/12/27 01:06:33;;;;;;;195.60;73.75;;;;;;;-11.37;71.05;100922.02;1636443;86;26494;-78
2021/12/27 01:08:59;;;;;;;201.75;72.78;;;;;;;-11.38;70.91;100912.59;1609293;86;25797;-78
2021/12/27 01:11:37;;;;;;;203.27;73.40;;;;;;;-11.45;70.77;100911.91;1601699;87;28201;-78
2021/12/27 01:14:09;;;;;;;195.50;74.17;;;;;;;-11.51;70.76;100912.08;1604737;88;25994;-78
2021/12/27 01:16:31;;;;;;;200.07;75.47;;;;;;;-11.54;70.92;100913.88;1634649;86;26586;-78
2021/12/27 01:18:57;;;;;;;197.82;79.30;;;;;;;-11.57;70.87;100912.69;1605887;87;26514;-78
2021/12/27 01:21:25;;;;;;;216.40;80.22;;;;;;;-11.57;71.15;100917.42;1637015;85;26055;-78
2021/12/27 01:23:54;;;;;;;216.35;78.07;;;;;;;-11.55;71.27;100914.35;1603271;89;27500;-78
2021/12/27 01:26:21;;;;;;;212.00;81.22;;;;;;;-11.56;71.16;100913.08;1639646;85;25753;-78
2021/12/27 01:28:47;;;;;;;207.80;80.55;;;;;;;-11.60;71.24;100904.57;1607726;87;25835;-77
2021/12/27 01:31:14;;;;;;;214.95;83.03;;;;;;;-11.60;71.47;100908.45;1645877;85;25997;-80
2021/12/27 01:33:41;;;;;;;252.10;91.87;;;;;;;-11.55;71.77;100916.08;1639600;85;26580;-78
2021/12/27 01:36:08;;;;;;;239.45;91.05;;;;;;;-11.56;71.76;100913.94;1636859;85;27472;-78
2021/12/27 01:38:36;;;;;;;244.05;91.55;;;;;;;-11.56;71.81;100913.08;1639133;86;26223;-78
2021/12/27 01:41:05;;;;;;;237.12;93.05;;;;;;;-11.56;71.90;100914.37;1639883;86;25815;-78
2021/12/27 01:43:35;;;;;;;222.42;89.95;;;;;;;-11.56;71.58;100916.95;1639642;85;26527;-78
2021/12/27 01:46:06;;;;;;;235.88;91.92;;;;;;;-11.60;71.33;100911.47;1635706;85;25793;-78
2021/12/27 01:48:38;;;;;;;226.15;91.53;;;;;;;-11.64;71.27;100918.90;1607306;87;27656;-77
2021/12/27 01:51:09;;;;;;;227.15;88.75;;;;;;;-11.66;71.21;100920.71;1635503;87;26587;-78
2021/12/27 01:53:38;;;;;;;232.83;85.12;;;;;;;-11.67;71.21;100919.03;1641920;86;25793;-77
2021/12/27 01:56:07;;;;;;;230.20;82.05;;;;;;;-11.73;70.96;100911.41;1641114;85;26543;-78
2021/12/27 01:58:34;;;;;;;167.73;66.50;;;;;;;-11.79;70.77;100918.03;1607592;87;25332;-78
2021/12/27 02:01:03;;;;;;;224.98;82.88;;;;;;;-11.83;70.87;100915.98;1577374;89;27445;-78
2021/12/27 02:03:32;;;;;;;220.40;86.60;;;;;;;-11.86;71.07;100916.05;1585159;88;26838;-78
2021/12/27 02:06:00;;;;;;;214.27;86.45;;;;;;;-11.88;71.13;100921.70;1605987;87;26473;-78
2021/12/27 02:08:28;;;;;;;220.40;91.25;;;;;;;-11.88;71.01;100927.72;1641730;85;25906;-78
2021/12/27 02:10:56;;;;;;;244.43;91.30;;;;;;;-11.87;71.22;100928.11;1641767;86;26437;-78
2021/12/27 02:13:23;;;;;;;237.25;91.05;;;;;;;-11.87;71.24;100925.53;1637604;85;28275;-78
2021/12/27 02:15:50;;;;;;;250.85;97.15;;;;;;;-11.83;71.37;100928.05;1636440;86;26478;-78
2021/12/27 02:18:16;;;;;;;244.60;92.08;;;;;;;-11.80;71.57;100924.93;1636958;86;26549;-78
2021/12/27 02:20:44;;;;;;;256.05;96.63;;;;;;;-11.78;71.58;100928.32;1638015;86;26547;-78
2021/12/27 02:23:18;;;;;;;216.12;78.95;;;;;;;-11.75;71.34;100929.98;1636796;85;25954;-78
2021/12/27 02:25:48;;;;;;;205.57;80.40;;;;;;;-11.78;71.19;100932.66;1601345;87;28338;-78
2021/12/27 02:28:16;;;;;;;212.78;78.02;;;;;;;-11.84;70.69;100934.94;1639081;86;25826;-78
2021/12/27 02:30:44;;;;;;;205.70;74.42;;;;;;;-11.97;70.36;100932.26;1639975;85;25802;-78
2021/12/27 02:33:12;;;;;;;207.35;76.40;;;;;;;-11.99;70.69;100936.61;1638067;85;25935;-78
2021/12/27 02:35:42;;;;;;;197.17;73.97;;;;;;;-12.03;70.50;100935.85;1600680;87;25841;-78
2021/12/27 02:38:12;;;;;;;217.32;83.55;;;;;;;-12.07;70.42;100938.11;1603286;87;28289;-78
2021/12/27 02:40:41;;;;;;;211.60;77.72;;;;;;;-12.11;70.64;100930.47;1601936;89;25906;-78
2021/12/27 02:43:12;;;;;;;218.60;82.85;;;;;;;-12.09;70.81;100928.27;1605244;87;25721;-78
2021/12/27 02:45:43;;;;;;;190.03;77.32;;;;;;;-12.10;70.70;100934.30;1605743;87;25870;-78
2021/12/27 02:48:12;;;;;;;220.48;81.80;;;;;;;-12.13;70.43;100927.94;1636351;86;25874;-78
2021/12/27 02:50:41;;;;;;;209.65;79.80;;;;;;;-12.20;70.25;100925.09;1602884;87;27519;-78
2021/12/27 02:53:09;;;;;;;216.25;77.08;;;;;;;-12.28;70.29;100920.56;1578465;89;25851;-78
2021/12/27 02:55:36;;;;;;;206.07;76.28;;;;;;;-12.27;70.47;100924.81;1603360;87;25807;-78
2021/12/27 02:58:04;;;;;;;195.38;75.28;;;;;;;-12.27;70.63;100923.53;1602797;87;25877;-78
2021/12/27 03:00:36;;;;;;;206.00;78.83;;;;;;;-12.26;70.66;100932.98;1601235;87;25916;-78
2021/12/27 03:03:02;;;;;;;208.17;79.03;;;;;;;-12.31;70.54;100929.66;1602176;87;27238;-78
2021/12/27 03:05:31;;;;;;;208.63;81.22;;;;;;;-12.31;70.52;100926.22;1579077;89;26383;-78
2021/12/27 03:07:58;;;;;;;206.13;77.22;;;;;;;-12.35;70.38;100921.58;1637156;85;26551;-78
2021/12/27 03:10:30;;;;;;;214.97;78.07;;;;;;;-12.36;70.29;100918.61;1636064;86;25808;-78
2021/12/27 03:12:58;;;;;;;187.05;73.00;;;;;;;-12.45;70.04;100916.23;1604853;87;25920;-78
2021/12/27 03:15:25;;;;;;;205.47;79.20;;;;;;;-12.54;70.03;100917.73;1632871;86;27720;-78
2021/12/27 03:17:54;;;;;;;190.43;75.57;;;;;;;-12.58;70.14;100919.98;1639271;86;25904;-78
2021/12/27 03:20:24;;;;;;;214.42;74.25;;;;;;;-12.64;70.13;100914.50;1638253;86;25911;-78
2021/12/27 03:22:51;;;;;;;204.75;75.90;;;;;;;-12.70;70.39;100914.64;1639018;85;26583;-78
2021/12/27 03:25:22;;;;;;;196.02;72.20;;;;;;;-12.74;70.46;100912.16;1640008;86;25823;-78
2021/12/27 03:27:49;;;;;;;188.18;74.45;;;;;;;-12.73;70.73;100912.15;1639111;85;27422;-78
2021/12/27 03:30:20;;;;;;;200.78;76.50;;;;;;;-12.66;71.08;100915.44;1608380;87;25944;-78
2021/12/27 03:32:47;;;;;;;206.97;79.50;;;;;;;-12.62;71.27;100909.33;1606091;87;25853;-78
2021/12/27 03:35:18;;;;;;;203.55;75.97;;;;;;;-12.58;71.29;100914.82;1638106;86;26413;-78
2021/12/27 03:37:48;;;;;;;207.50;79.90;;;;;;;-12.55;71.33;100917.31;1638820;85;25973;-78
2021/12/27 03:40:17;;;;;;;196.98;79.07;;;;;;;-12.53;71.47;100910.84;1603199;87;27487;-78
2021/12/27 03:42:49;;;;;;;227.78;88.10;;;;;;;-12.52;71.57;100909.52;1604617;87;25345;-78
2021/12/27 03:45:28;;;;;;;195.10;77.75;;;;;;;-12.50;71.61;100907.75;1638498;86;25813;-78
2021/12/27 03:47:55;;;;;;;216.97;81.30;;;;;;;-12.47;71.59;100909.41;1602730;87;25862;-78
2021/12/27 03:50:24;;;;;;;216.82;81.67;;;;;;;-12.43;71.53;100907.16;1637989;86;26135;-78
2021/12/27 03:52:50;;;;;;;212.32;81.53;;;;;;;-12.45;71.36;100903.34;1600917;89;27470;-78
2021/12/27 03:55:16;;;;;;;199.12;77.45;;;;;;;-12.45;71.16;100898.17;1609292;87;26591;-78
2021/12/27 03:57:51;;;;;;;171.13;65.32;;;;;;;-12.49;71.05;100895.27;1581453;89;25856;-78
2021/12/27 04:02:50;;;;;;;186.32;71.75;;;;;;;-12.59;70.83;100891.18;1636901;86;26085;-78
2021/12/27 04:05:17;;;;;;;180.50;67.70;;;;;;;-12.58;70.79;100889.45;1633447;86;28264;-78
2021/12/27 04:07:45;;;;;;;180.45;66.15;;;;;;;-12.60;70.76;100895.95;1641065;85;25806;-78
2021/12/27 04:10:12;;;;;;;181.30;67.53;;;;;;;-12.57;70.91;100894.57;1640164;86;26472;-77
2021/12/27 04:12:39;;;;;;;177.75;65.20;;;;;;;-12.59;70.78;100897.63;1636495;85;26533;-78
2021/12/27 04:15:09;;;;;;;171.32;66.50;;;;;;;-12.60;70.81;100902.83;1644162;86;25884;-78
2021/12/27 04:17:36;;;;;;;179.63;64.15;;;;;;;-12.62;70.78;100891.70;1603721;89;27598;-78
2021/12/27 04:20:04;;;;;;;189.55;71.97;;;;;;;-12.64;70.69;100888.70;1609550;88;25759;-78
2021/12/27 04:22:33;;;;;;;176.97;68.60;;;;;;;-12.70;70.72;100886.73;1639114;86;25815;-78
2021/12/27 04:25:00;;;;;;;179.60;74.87;;;;;;;-12.73;70.88;100886.36;1642520;86;25868;-78
2021/12/27 04:27:26;;;;;;;204.55;77.47;;;;;;;-12.72;71.03;100879.01;1605737;87;25791;-78
2021/12/27 04:29:53;;;;;;;189.00;76.55;;;;;;;-12.67;71.33;100881.48;1606865;87;28173;-78
2021/12/27 04:32:20;;;;;;;206.13;77.80;;;;;;;-12.64;71.39;100875.80;1577524;89;25815;-78
2021/12/27 04:34:46;;;;;;;190.92;75.85;;;;;;;-12.60;71.31;100875.75;1637046;86;25801;-78
2021/12/27 04:37:12;;;;;;;207.15;74.80;;;;;;;-12.62;71.19;100873.64;1640917;85;25847;-78
2021/12/27 04:39:39;;;;;;;188.47;70.97;;;;;;;-12.62;71.13;100870.63;1643830;86;25836;-78
2021/12/27 04:42:08;;;;;;;180.20;69.85;;;;;;;-12.60;71.02;100870.59;1645896;85;27470;-78
2021/12/27 04:44:34;;;;;;;185.53;69.83;;;;;;;-12.59;70.87;100867.96;1644714;86;26464;-78
2021/12/27 04:47:01;;;;;;;183.55;69.15;;;;;;;-12.58;70.71;100870.97;1649844;85;25831;-78
2021/12/27 04:49:28;;;;;;;198.30;70.35;;;;;;;-12.60;70.61;100873.17;1646774;86;26642;-78
2021/12/27 04:51:54;;;;;;;173.02;67.55;;;;;;;-12.61;70.50;100874.89;1652725;85;26454;-78
2021/12/27 04:54:20;;;;;;;183.68;67.92;;;;;;;-12.62;70.49;100863.33;1652110;85;26948;-78
2021/12/27 04:56:47;;;;;;;183.80;69.07;;;;;;;-12.63;70.42;100862.47;1634298;85;26537;-78
2021/12/27 04:59:13;;;;;;;147.30;63.08;;;;;;;-12.64;70.23;100862.91;1649833;85;26469;-78
2021/12/27 05:01:39;;;;;;;177.68;63.95;;;;;;;-12.66;70.20;100869.84;1651319;86;25774;-78
2021/12/27 05:04:06;;;;;;;179.60;65.10;;;;;;;-12.69;70.21;100862.62;1644321;86;25758;-78
2021/12/27 05:06:32;;;;;;;170.82;65.85;;;;;;;-12.69;70.38;100866.06;1650024;85;27537;-77
2021/12/27 05:08:58;;;;;;;166.03;66.82;;;;;;;-12.69;70.49;100873.80;1653196;85;26560;-78
2021/12/27 05:11:24;;;;;;;170.10;65.15;;;;;;;-12.65;70.70;100875.85;1647014;86;26010;-78
2021/12/27 05:13:51;;;;;;;185.67;71.82;;;;;;;-12.67;70.79;100874.61;1648348;86;25964;-78
2021/12/27 05:16:17;;;;;;;188.57;71.20;;;;;;;-12.65;70.94;100874.56;1649339;85;25776;-78
2021/12/27 05:18:43;;;;;;;173.50;66.55;;;;;;;-12.64;71.13;100878.85;1639404;86;27451;-78
2021/12/27 05:21:09;;;;;;;194.07;72.95;;;;;;;-12.61;71.35;100876.18;1644429;85;25802;-78
2021/12/27 05:23:36;;;;;;;184.00;68.62;;;;;;;-12.57;71.47;100879.09;1605527;87;25895;-78
2021/12/27 05:26:02;;;;;;;195.57;70.35;;;;;;;-12.59;71.18;100881.33;1652827;86;25847;-78
2021/12/27 05:28:28;;;;;;;187.30;71.70;;;;;;;-12.65;71.09;100884.87;1608999;87;25828;-78
2021/12/27 05:30:54;;;;;;;185.37;69.45;;;;;;;-12.67;71.00;100882.34;1653736;85;27455;-78
2021/12/27 05:33:20;;;;;;;182.95;70.85;;;;;;;-12.68;70.96;100875.47;1650162;86;25889;-78
2021/12/27 05:35:47;;;;;;;191.40;71.07;;;;;;;-12.67;71.05;100877.19;1652044;85;26456;-78
2021/12/27 05:38:14;;;;;;;183.30;67.27;;;;;;;-12.67;71.13;100882.78;1646151;86;25958;-78
2021/12/27 05:40:41;;;;;;;198.65;73.22;;;;;;;-12.67;71.15;100886.65;1641139;86;25758;-78
2021/12/27 05:43:09;;;;;;;180.87;71.25;;;;;;;-12.67;71.38;100882.34;1605874;87;26921;-78
2021/12/27 05:45:36;;;;;;;195.85;69.62;;;;;;;-12.69;71.20;100883.26;1651052;86;25977;-78
2021/12/27 05:48:06;;;;;;;207.07;75.50;;;;;;;-12.71;70.93;100878.58;1637947;86;25824;-78
2021/12/27 05:50:34;;;;;;;198.43;75.52;;;;;;;-12.73;70.82;100881.63;1639074;85;26555;-78
2021/12/27 05:53:01;;;;;;;189.10;75.45;;;;;;;-12.76;70.79;100888.99;1648752;86;25971;-78
2021/12/27 05:55:29;;;;;;;195.57;72.97;;;;;;;-12.75;71.06;100895.00;1649983;86;27428;-78
2021/12/27 05:57:55;;;;;;;205.75;79.27;;;;;;;-12.74;71.21;100888.95;1652224;85;25755;-78
2021/12/27 06:00:22;;;;;;;226.50;84.87;;;;;;;-12.71;71.64;100889.75;1643419;85;25811;-78
2021/12/27 06:02:48;;;;;;;205.00;75.72;;;;;;;-12.68;71.95;100885.79;1635259;85;26618;-77
2021/12/27 06:05:17;;;;;;;208.07;79.70;;;;;;;-12.65;71.95;100888.31;1661351;86;25742;-78
2021/12/27 06:07:43;;;;;;;210.08;77.85;;;;;;;-12.61;72.03;100893.42;1653047;85;27479;-78
2021/12/27 06:10:09;;;;;;;202.57;81.02;;;;;;;-12.59;71.71;100892.94;1641107;85;26375;-78
2021/12/27 06:12:36;;;;;;;209.05;82.10;;;;;;;-12.63;71.60;100886.98;1649658;85;25842;-78
2021/12/27 06:15:04;;;;;;;200.18;76.53;;;;;;;-12.65;71.65;100893.47;1603270;89;25771;-78
2021/12/27 06:17:31;;;;;;;196.65;77.08;;;;;;;-12.64;71.63;100889.99;1643155;85;25966;-77
2021/12/27 06:20:04;;;;;;;204.78;75.28;;;;;;;-12.61;71.66;100899.86;1651346;85;27503;-78
2021/12/27 06:22:31;;;;;;;200.13;77.32;;;;;;;-12.60;71.66;100896.38;1603951;87;26538;-77
2021/12/27 06:25:00;;;;;;;205.40;83.27;;;;;;;-12.62;71.69;100901.59;1645274;86;26569;-78
2021/12/27 06:27:25;;;;;;;204.05;76.75;;;;;;;-12.66;71.96;100896.92;1638335;84;26823;-78
2021/12/27 06:29:51;;;;;;;232.95;86.42;;;;;;;-12.69;71.79;100895.72;1605777;89;25837;-77
2021/12/27 06:32:19;;;;;;;266.48;92.60;;;;;;;-12.73;71.53;100903.12;1580520;89;27190;-78
2021/12/27 06:34:45;;;;;;;250.47;87.67;;;;;;;-12.75;71.35;100905.32;1606010;88;25899;-78
2021/12/27 06:37:11;;;;;;;236.70;82.40;;;;;;;-12.75;71.45;100906.17;1645782;85;25823;-77
2021/12/27 06:39:38;;;;;;;233.82;81.32;;;;;;;-12.73;71.70;100903.55;1644223;85;25972;-78
2021/12/27 06:42:06;;;;;;;251.27;84.45;;;;;;;-12.72;71.72;100900.93;1645843;85;26193;-77
2021/12/27 06:44:33;;;;;;;235.13;81.55;;;;;;;-12.70;71.75;100900.92;1656927;85;28094;-79
2021/12/27 06:47:00;;;;;;;234.03;83.97;;;;;;;-12.70;71.58;100900.92;1639115;85;26406;-78
2021/12/27 06:49:27;;;;;;;225.80;79.37;;;;;;;-12.73;71.55;100897.97;1645893;86;25790;-78
2021/12/27 06:51:54;;;;;;;209.50;74.45;;;;;;;-12.72;71.62;100898.35;1595418;89;26564;-78
2021/12/27 06:54:20;;;;;;;189.35;72.92;;;;;;;-12.72;71.79;100908.67;1653364;85;25980;-77
2021/12/27 06:56:48;;;;;;;194.62;74.82;;;;;;;-12.71;71.75;100906.95;1642197;86;27618;-78
2021/12/27 06:59:14;;;;;;;203.58;78.15;;;;;;;-12.69;71.69;100909.91;1604757;87;25835;-78
2021/12/27 07:01:41;;;;;;;199.82;79.50;;;;;;;-12.69;71.86;100914.20;1639377;86;25894;-78
2021/12/27 07:04:07;;;;;;;220.35;85.15;;;;;;;-12.67;71.88;100912.00;1657899;86;25940;-78
2021/12/27 07:06:33;;;;;;;228.12;89.13;;;;;;;-12.67;71.86;100906.84;1654726;85;25797;-78
2021/12/27 07:08:59;;;;;;;219.07;83.75;;;;;;;-12.65;71.89;100901.21;1642898;86;28285;-78
2021/12/27 07:11:26;;;;;;;220.17;84.72;;;;;;;-12.62;71.94;100896.86;1649588;85;26381;-78
2021/12/27 07:13:52;;;;;;;211.28;84.40;;;;;;;-12.63;71.77;100899.88;1616546;87;25816;-78
2021/12/27 07:16:19;;;;;;;200.62;78.02;;;;;;;-12.64;71.73;100901.60;1577429;89;26566;-77
2021/12/27 07:18:45;;;;;;;201.37;76.90;;;;;;;-12.61;71.83;100897.28;1629169;87;25793;-78
2021/12/27 07:21:11;;;;;;;205.32;82.40;;;;;;;-12.59;71.93;100895.52;1626942;87;28247;-78
2021/12/27 07:23:37;;;;;;;235.90;101.12;;;;;;;-12.55;71.96;100899.72;1647126;85;25942;-78
2021/12/27 07:26:03;;;;;;;278.15;108.63;;;;;;;-12.53;72.16;100903.11;1651535;85;25790;-78
2021/12/27 07:28:30;;;;;;;248.43;103.45;;;;;;;-12.49;72.39;100896.98;1607755;87;26209;-78
2021/12/27 07:30:56;;;;;;;254.43;107.32;;;;;;;-12.46;72.42;100904.20;1644808;86;25961;-77
2021/12/27 07:33:22;;;;;;;243.82;101.60;;;;;;;-12.40;72.65;100907.10;1616324;87;27523;-78
2021/12/27 07:35:48;;;;;;;255.85;104.00;;;;;;;-12.38;72.75;100909.20;1600150;89;26013;-78
2021/12/27 07:38:15;;;;;;;291.93;112.75;;;;;;;-12.35;72.76;100912.98;1610292;87;25791;-78
2021/12/27 07:40:41;;;;;;;294.82;116.10;;;;;;;-12.34;72.88;100915.98;1639113;85;26528;-78
2021/12/27 07:43:07;;;;;;;308.50;121.55;;;;;;;-12.31;73.02;100913.31;1648323;86;25780;-78
2021/12/27 07:45:34;;;;;;;357.75;137.72;;;;;;;-12.27;73.22;100905.46;1646270;86;28256;-77
2021/12/27 07:48:01;;;;;;;348.20;128.42;;;;;;;-12.25;73.33;100908.03;1647888;85;25927;-77
2021/12/27 07:50:27;;;;;;;350.95;128.50;;;;;;;-12.20;73.43;100911.33;1650028;86;26473;-77
2021/12/27 07:52:55;;;;;;;341.68;127.70;;;;;;;-12.18;73.64;100910.41;1651834;85;25794;-78
2021/12/27 07:55:21;;;;;;;331.02;122.53;;;;;;;-12.12;73.84;100913.27;1654597;86;25712;-77
2021/12/27 07:57:47;;;;;;;281.10;111.50;;;;;;;-12.06;74.18;100908.80;1653275;84;27445;-78
2021/12/27 08:00:15;;;;;;;252.55;98.27;;;;;;;-11.99;74.77;100906.92;1643871;85;25892;-78
2021/12/27 08:02:42;;;;;;;228.22;93.12;;;;;;;-11.95;75.02;100904.66;1609070;86;26066;-78
2021/12/27 08:05:09;;;;;;;254.20;99.72;;;;;;;-11.90;75.49;100912.72;1623415;87;25840;-78
2021/12/27 08:07:35;;;;;;;270.65;109.80;;;;;;;-11.87;75.42;100911.33;1614873;87;25757;-77
2021/12/27 08:10:01;;;;;;;361.82;125.62;;;;;;;-11.83;75.40;100913.41;1644529;86;27461;-78
2021/12/27 08:12:28;;;;;;;384.40;138.37;;;;;;;-11.82;75.41;100909.09;1642060;84;25801;-78
2021/12/27 08:14:54;;;;;;;358.68;128.23;;;;;;;-11.78;75.57;100910.70;1645091;86;25901;-77
2021/12/27 08:17:21;;;;;;;336.57;120.20;;;;;;;-11.71;75.85;100909.64;1650887;86;25839;-78
2021/12/27 08:19:48;;;;;;;326.77;127.07;;;;;;;-11.65;76.13;100905.13;1602633;87;26184;-78
2021/12/27 08:22:14;;;;;;;308.52;120.82;;;;;;;-11.58;76.37;100903.23;1602923;87;27462;-78
2021/12/27 08:24:40;;;;;;;286.98;108.70;;;;;;;-11.51;76.66;100900.45;1603248;87;26039;-78
2021/12/27 08:27:06;;;;;;;251.75;98.47;;;;;;;-11.45;76.89;100903.30;1639075;86;25502;-78
2021/12/27 08:29:33;;;;;;;228.77;90.67;;;;;;;-11.38;76.97;100894.06;1637863;86;25841;-78
2021/12/27 08:31:59;;;;;;;221.57;92.60;;;;;;;-11.31;77.08;100890.86;1639114;85;26428;-77
2021/12/27 08:34:25;;;;;;;224.10;92.37;;;;;;;-11.25;77.31;100904.47;1637854;85;27698;-78
2021/12/27 08:36:53;;;;;;;229.85;89.15;;;;;;;-11.17;77.55;100905.53;1603096;87;25898;-78
2021/12/27 08:39:19;;;;;;;208.95;90.20;;;;;;;-11.10;77.86;100909.17;1639961;86;25805;-78
2021/12/27 08:41:45;;;;;;;267.70;113.20;;;;;;;-11.02;78.12;100908.11;1637629;86;26077;-78
2021/12/27 08:44:11;;;;;;;243.60;103.32;;;;;;;-10.96;78.35;100904.91;1640656;85;25899;-78
2021/12/27 08:46:38;;;;;;;215.80;90.70;;;;;;;-10.90;78.44;100913.77;1636811;85;27461;-77
2021/12/27 08:49:04;;;;;;;244.72;101.45;;;;;;;-10.82;78.70;100911.83;1641484;86;25926;-78
2021/12/27 08:51:31;;;;;;;271.00;111.12;;;;;;;-10.75;78.93;100908.14;1640890;86;25990;-78
2021/12/27 08:53:58;;;;;;;225.20;95.67;;;;;;;-10.65;79.36;100912.61;1639921;86;26567;-78
2021/12/27 08:56:25;;;;;;;221.18;89.20;;;;;;;-10.57;79.30;100908.89;1639740;87;25806;-78
2021/12/27 08:58:54;;;;;;;263.23;100.47;;;;;;;-10.50;79.39;100910.38;1641791;85;25959;-78
2021/12/27 09:01:21;;;;;;;234.47;94.37;;;;;;;-10.42;79.73;100914.04;1638476;85;26558;-78
2021/12/27 09:03:47;;;;;;;249.42;96.45;;;;;;;-10.33;79.70;100905.52;1603785;87;25377;-78
2021/12/27 09:06:14;;;;;;;227.28;92.67;;;;;;;-10.26;79.78;100901.84;1580280;89;26393;-78
2021/12/27 09:08:41;;;;;;;233.78;98.78;;;;;;;-10.20;79.67;100900.82;1638506;86;25737;-78
2021/12/27 09:11:08;;;;;;;232.67;93.12;;;;;;;-10.12;79.78;100903.14;1638186;85;28247;-78
2021/12/27 09:13:38;;;;;;;228.07;93.47;;;;;;;-10.07;79.87;100896.88;1605163;87;26526;-78
2021/12/27 09:16:07;;;;;;;;;;;;;;;-9.99;79.85;100893.61;1640072;85;25832;-79
2021/12/27 09:18:35;;;;;;;230.72;93.52;;;;;;;-9.94;79.89;100887.80;1637729;86;25807;-79
2021/12/27 09:21:02;;;;;;;201.32;84.97;;;;;;;-9.88;80.05;100887.59;1604773;87;25604;-78
2021/12/27 09:23:29;;;;;;;196.70;77.50;;;;;;;-9.80;80.16;100884.31;1638354;86;27461;-78
2021/12/27 09:25:55;;;;;;;200.47;85.12;;;;;;;-9.74;80.24;100887.13;1605417;87;25996;-78
2021/12/27 09:28:22;;;;;;;233.47;95.10;;;;;;;-9.71;80.10;100885.27;1605537;87;25844;-78
2021/12/27 09:30:48;;;;;;;185.73;75.92;;;;;;;-9.66;80.14;100882.52;1635755;87;25925;-79
2021/12/27 09:33:15;;;;;;;196.57;79.50;;;;;;;-9.61;80.23;100880.63;1605323;87;26492;-78
2021/12/27 09:35:41;;;;;;;195.30;82.47;;;;;;;-9.56;80.27;100877.43;1602547;89;28253;-78
2021/12/27 09:38:08;;;;;;;183.18;74.17;;;;;;;-9.51;80.35;100870.31;1604193;87;26628;-79
2021/12/27 09:40:35;;;;;;;206.28;84.90;;;;;;;-9.47;80.39;100875.34;1584106;89;25888;-78
2021/12/27 09:43:02;;;;;;;173.02;73.75;;;;;;;-9.40;80.66;100874.67;1582619;89;25843;-78
2021/12/27 09:45:28;;;;;;;206.43;87.08;;;;;;;-9.34;80.66;100876.22;1606127;87;25846;-78
2021/12/27 09:47:54;;;;;;;212.70;83.92;;;;;;;-9.28;80.67;100863.84;1605730;87;27458;-78
2021/12/27 09:50:35;;;;;;;167.30;71.75;;;;;;;-9.20;80.78;100863.14;1611634;86;25877;-78
2021/12/27 09:53:01;;;;;;;171.20;73.07;;;;;;;-9.14;80.77;100860.31;1638000;86;25798;-78
2021/12/27 09:55:28;;;;;;;179.80;75.30;;;;;;;-9.09;80.76;100862.73;1641296;85;26567;-78
2021/12/27 09:57:55;;;;;;;184.35;77.08;;;;;;;-9.02;80.71;100865.03;1603856;87;26570;-78
2021/12/27 10:00:23;;;;;;;187.05;78.25;;;;;;;-8.95;80.80;100855.27;1637650;86;27523;-78
2021/12/27 10:02:52;;;;;;;209.45;82.53;;;;;;;-8.89;80.76;100853.73;1641594;86;26586;-78
2021/12/27 10:05:21;;;;;;;138.22;63.20;;;;;;;-8.81;80.88;100858.20;1637505;86;26004;-78
2021/12/27 10:07:48;;;;;;;194.07;80.70;;;;;;;-8.75;80.78;100854.06;1636695;85;26733;-78
2021/12/27 10:10:14;;;;;;;189.65;80.47;;;;;;;-8.70;80.71;100846.92;1638714;86;25743;-78
2021/12/27 10:12:40;;;;;;;161.75;69.42;;;;;;;-8.63;80.67;100848.38;1639264;85;27445;-78
2021/12/27 10:15:11;;;;;;;182.72;79.27;;;;;;;-8.58;80.66;100841.27;1644369;85;25745;-78
2021/12/27 10:17:41;;;;;;;164.03;69.60;;;;;;;-8.54;80.30;100842.83;1641160;85;25994;-78
2021/12/27 10:20:21;;;;;;;173.30;74.77;;;;;;;-8.50;80.39;100835.30;1640303;85;25847;-78
2021/12/27 10:22:51;;;;;;;147.35;62.23;;;;;;;-8.44;80.36;100827.26;1636217;86;25939;-78
2021/12/27 10:25:24;;;;;;;152.53;67.00;;;;;;;-8.40;80.26;100828.83;1631943;87;27461;-79
2021/12/27 10:27:54;;;;;;;164.72;67.78;;;;;;;-8.35;80.31;100824.74;1640924;85;25933;-79
2021/12/27 10:30:24;;;;;;;180.80;73.33;;;;;;;-8.29;80.10;100821.89;1636954;86;25756;-79
2021/12/27 10:33:19;;;;;;;168.80;73.28;;;;;;;-8.26;80.13;100822.63;1640854;85;26802;-79
2021/12/27 10:35:49;;;;;;;171.43;71.95;;;;;;;-8.19;80.06;100817.99;1606510;87;25869;-78
2021/12/27 10:38:27;;;;;;;221.45;88.37;;;;;;;-8.12;80.13;100815.50;1643473;86;28057;-78
2021/12/27 10:40:58;;;;;;;179.87;80.07;;;;;;;-8.09;80.15;100819.29;1638152;85;26561;-79
2021/12/27 10:43:50;;;;;;;158.18;68.28;;;;;;;-8.04;80.07;100810.86;1604797;87;25774;-78
2021/12/27 10:46:19;;;;;;;173.07;72.67;;;;;;;-7.99;80.05;100811.03;1635199;85;26615;-78
2021/12/27 10:48:57;;;;;;;181.43;77.60;;;;;;;-7.92;80.07;100807.72;1643059;86;25948;-78
2021/12/27 10:51:24;;;;;;;220.75;92.10;;;;;;;-7.88;80.13;100799.73;1635144;85;27551;-78
2021/12/27 10:53:58;;;;;;;163.15;67.78;;;;;;;-7.79;80.09;100804.13;1607199;87;25867;-79
2021/12/27 10:56:27;;;;;;;187.77;79.77;;;;;;;-7.74;79.96;100803.01;1579667;89;25831;-78
2021/12/27 10:58:57;;;;;;;188.30;79.05;;;;;;;-7.68;79.80;100798.02;1638742;86;25989;-78